sensor_id;sensor_type;location;lat;lon;timestamp;P1;durP1;ratioP1;P2;durP2;ratioP2
5827;SDS011;42583;50.240;8.444;2023-01-05T00:02:18;2.97;;;1.10;;
5827;SDS011;42583;50.240;8.444;2023-01-05T00:17:20;2.13;;;0.80;;
5827;SDS011;42583;50.240;8.444;2023-01-05T00:32:40;1.63;;;0.80;;
5827;SDS011;42583;50.240;8.444;2023-01-05T00:47:42;1.63;;;0.70;;
5827;SDS011;42583;50.240;8.444;2023-01-05T01:02:43;1.35;;;0.90;;
5827;SDS011;42583;50.240;8.444;2023-01-05T01:17:44;3.53;;;0.80;;
5827;SDS011;42583;50.240;8.444;2023-01-05T01:32:45;3.08;;;0.93;;
5827;SDS011;42583;50.240;8.444;2023-01-05T01:47:47;7.50;;;1.33;;
5827;SDS011;42583;50.240;8.444;2023-01-05T02:02:52;5.70;;;1.40;;
5827;SDS011;42583;50.240;8.444;2023-01-05T02:33:24;9.75;;;2.03;;
5827;SDS011;42583;50.240;8.444;2023-01-05T02:48:36;11.57;;;1.83;;
5827;SDS011;42583;50.240;8.444;2023-01-05T03:03:42;14.60;;;1.98;;
5827;SDS011;42583;50.240;8.444;2023-01-05T03:18:46;17.80;;;2.15;;
5827;SDS011;42583;50.240;8.444;2023-01-05T03:49:56;14.10;;;2.05;;
5827;SDS011;42583;50.240;8.444;2023-01-05T04:04:57;15.73;;;2.13;;
5827;SDS011;42583;50.240;8.444;2023-01-05T04:19:57;13.48;;;1.73;;
5827;SDS011;42583;50.240;8.444;2023-01-05T04:34:58;10.68;;;2.33;;
5827;SDS011;42583;50.240;8.444;2023-01-05T04:49:58;21.98;;;2.80;;
5827;SDS011;42583;50.240;8.444;2023-01-05T05:05:00;15.25;;;1.90;;
5827;SDS011;42583;50.240;8.444;2023-01-05T05:20:00;12.48;;;1.80;;
5827;SDS011;42583;50.240;8.444;2023-01-05T05:35:01;11.52;;;2.15;;
5827;SDS011;42583;50.240;8.444;2023-01-05T05:50:01;16.55;;;2.15;;
5827;SDS011;42583;50.240;8.444;2023-01-05T06:05:02;9.48;;;2.10;;
5827;SDS011;42583;50.240;8.444;2023-01-05T06:20:03;12.65;;;2.25;;
5827;SDS011;42583;50.240;8.444;2023-01-05T06:35:05;12.27;;;2.15;;
5827;SDS011;42583;50.240;8.444;2023-01-05T06:50:06;13.63;;;2.10;;
5827;SDS011;42583;50.240;8.444;2023-01-05T07:05:07;15.60;;;2.10;;
5827;SDS011;42583;50.240;8.444;2023-01-05T07:20:07;14.00;;;2.13;;
5827;SDS011;42583;50.240;8.444;2023-01-05T07:35:08;12.05;;;2.05;;
5827;SDS011;42583;50.240;8.444;2023-01-05T07:50:09;10.93;;;2.10;;
5827;SDS011;42583;50.240;8.444;2023-01-05T08:05:09;13.90;;;2.60;;
5827;SDS011;42583;50.240;8.444;2023-01-05T08:20:10;17.27;;;2.00;;
5827;SDS011;42583;50.240;8.444;2023-01-05T08:35:11;17.48;;;2.00;;
5827;SDS011;42583;50.240;8.444;2023-01-05T08:50:11;18.20;;;2.25;;
5827;SDS011;42583;50.240;8.444;2023-01-05T09:05:12;12.43;;;1.90;;
5827;SDS011;42583;50.240;8.444;2023-01-05T09:20:13;12.65;;;1.95;;
5827;SDS011;42583;50.240;8.444;2023-01-05T09:35:13;14.50;;;2.13;;
5827;SDS011;42583;50.240;8.444;2023-01-05T09:50:20;15.25;;;1.90;;
5827;SDS011;42583;50.240;8.444;2023-01-05T10:05:23;16.67;;;2.00;;
5827;SDS011;42583;50.240;8.444;2023-01-05T10:51:24;18.52;;;2.22;;
5827;SDS011;42583;50.240;8.444;2023-01-05T11:06:30;24.58;;;3.20;;
5827;SDS011;42583;50.240;8.444;2023-01-05T11:21:40;15.85;;;2.40;;
5827;SDS011;42583;50.240;8.444;2023-01-05T11:36:51;18.38;;;3.15;;
5827;SDS011;42583;50.240;8.444;2023-01-05T11:51:54;18.60;;;2.40;;
5827;SDS011;42583;50.240;8.444;2023-01-05T12:07:40;14.55;;;2.40;;
5827;SDS011;42583;50.240;8.444;2023-01-05T12:53:31;20.73;;;6.45;;
5827;SDS011;42583;50.240;8.444;2023-01-05T13:08:55;13.13;;;2.70;;
5827;SDS011;42583;50.240;8.444;2023-01-05T13:24:09;14.73;;;2.60;;
5827;SDS011;42583;50.240;8.444;2023-01-05T13:39:26;11.27;;;2.50;;
5827;SDS011;42583;50.240;8.444;2023-01-05T13:54:42;14.20;;;2.20;;
5827;SDS011;42583;50.240;8.444;2023-01-05T14:10:00;17.70;;;2.08;;
5827;SDS011;42583;50.240;8.444;2023-01-05T14:40:43;11.05;;;2.10;;
5827;SDS011;42583;50.240;8.444;2023-01-05T15:11:01;13.85;;;2.60;;
5827;SDS011;42583;50.240;8.444;2023-01-05T15:41:20;15.85;;;2.40;;
5827;SDS011;42583;50.240;8.444;2023-01-05T15:56:23;24.15;;;2.55;;
5827;SDS011;42583;50.240;8.444;2023-01-05T16:11:29;18.52;;;2.70;;
5827;SDS011;42583;50.240;8.444;2023-01-05T16:26:34;18.35;;;2.90;;
5827;SDS011;42583;50.240;8.444;2023-01-05T16:41:36;17.35;;;2.80;;
5827;SDS011;42583;50.240;8.444;2023-01-05T16:56:57;22.02;;;2.78;;
5827;SDS011;42583;50.240;8.444;2023-01-05T17:12:00;28.05;;;2.72;;
5827;SDS011;42583;50.240;8.444;2023-01-05T17:27:01;20.70;;;2.78;;
5827;SDS011;42583;50.240;8.444;2023-01-05T17:42:01;29.85;;;2.75;;
5827;SDS011;42583;50.240;8.444;2023-01-05T17:57:20;24.58;;;2.80;;
5827;SDS011;42583;50.240;8.444;2023-01-05T18:12:21;25.83;;;3.15;;
5827;SDS011;42583;50.240;8.444;2023-01-05T18:27:22;25.27;;;2.85;;
5827;SDS011;42583;50.240;8.444;2023-01-05T18:42:24;18.50;;;2.38;;
5827;SDS011;42583;50.240;8.444;2023-01-05T18:57:25;23.73;;;3.03;;
5827;SDS011;42583;50.240;8.444;2023-01-05T19:12:26;18.67;;;3.15;;
5827;SDS011;42583;50.240;8.444;2023-01-05T19:27:26;14.15;;;2.85;;
5827;SDS011;42583;50.240;8.444;2023-01-05T19:42:27;12.25;;;2.50;;
5827;SDS011;42583;50.240;8.444;2023-01-05T19:57:28;40.45;;;2.88;;
5827;SDS011;42583;50.240;8.444;2023-01-05T20:12:28;261.52;;;6.20;;
5827;SDS011;42583;50.240;8.444;2023-01-05T20:27:29;366.92;;;8.38;;
5827;SDS011;42583;50.240;8.444;2023-01-05T20:42:29;364.08;;;7.13;;
5827;SDS011;42583;50.240;8.444;2023-01-05T20:57:30;371.80;;;7.45;;
5827;SDS011;42583;50.240;8.444;2023-01-05T21:12:30;216.32;;;4.40;;
5827;SDS011;42583;50.240;8.444;2023-01-05T21:27:31;280.00;;;6.20;;
5827;SDS011;42583;50.240;8.444;2023-01-05T21:42:34;94.43;;;4.18;;
5827;SDS011;42583;50.240;8.444;2023-01-05T21:57:48;443.60;;;9.55;;
5827;SDS011;42583;50.240;8.444;2023-01-05T22:12:49;235.77;;;4.53;;
5827;SDS011;42583;50.240;8.444;2023-01-05T22:27:49;410.60;;;8.48;;
5827;SDS011;42583;50.240;8.444;2023-01-05T22:42:50;87.65;;;3.35;;
5827;SDS011;42583;50.240;8.444;2023-01-05T22:57:50;182.13;;;4.32;;
5827;SDS011;42583;50.240;8.444;2023-01-05T23:12:51;155.48;;;3.92;;
5827;SDS011;42583;50.240;8.444;2023-01-05T23:27:52;209.13;;;4.85;;
5827;SDS011;42583;50.240;8.444;2023-01-05T23:42:53;331.75;;;7.07;;
5827;SDS011;42583;50.240;8.444;2023-01-05T23:57:53;242.10;;;4.80;;
